sensor_id;sensor_type;location;lat;lon;timestamp;temperature;humidity
18658;DHT22;9458;50.942;5.074;2024-03-07T17:55:31;8.70;99.90
18658;DHT22;9458;50.942;5.074;2024-03-07T17:57:58;8.80;99.90
18658;DHT22;9458;50.942;5.074;2024-03-07T18:00:26;8.80;99.90
18658;DHT22;9458;50.942;5.074;2024-03-07T18:02:54;8.80;99.90
18658;DHT22;9458;50.942;5.074;2024-03-07T18:05:22;8.80;99.90
18658;DHT22;9458;50.942;5.074;2024-03-07T18:07:52;8.80;99.90
18658;DHT22;9458;50.942;5.074;2024-03-07T18:10:20;8.70;99.90
18658;DHT22;9458;50.942;5.074;2024-03-07T18:12:51;8.70;99.90
18658;DHT22;9458;50.942;5.074;2024-03-07T18:15:20;8.70;99.90
18658;DHT22;9458;50.942;5.074;2024-03-07T18:17:48;8.60;99.90
18658;DHT22;9458;50.942;5.074;2024-03-07T18:20:19;8.60;99.90
18658;DHT22;9458;50.942;5.074;2024-03-07T18:22:46;8.60;99.90
18658;DHT22;9458;50.942;5.074;2024-03-07T18:25:16;8.60;99.90
18658;DHT22;9458;50.942;5.074;2024-03-07T18:27:49;8.60;99.90
18658;DHT22;9458;50.942;5.074;2024-03-07T18:30:17;8.50;99.90
18658;DHT22;9458;50.942;5.074;2024-03-07T18:32:46;8.50;99.90
18658;DHT22;9458;50.942;5.074;2024-03-07T18:35:13;8.50;99.90
18658;DHT22;9458;50.942;5.074;2024-03-07T18:37:41;8.40;99.90
18658;DHT22;9458;50.942;5.074;2024-03-07T18:40:12;8.40;99.90
18658;DHT22;9458;50.942;5.074;2024-03-07T18:42:41;8.50;99.90
18658;DHT22;9458;50.942;5.074;2024-03-07T18:45:13;8.30;99.90
18658;DHT22;9458;50.942;5.074;2024-03-07T18:47:46;8.40;99.90
18658;DHT22;9458;50.942;5.074;2024-03-07T18:50:21;8.30;99.90
18658;DHT22;9458;50.942;5.074;2024-03-07T18:52:49;8.30;99.90
18658;DHT22;9458;50.942;5.074;2024-03-07T18:55:18;8.30;99.90
18658;DHT22;9458;50.942;5.074;2024-03-07T18:57:48;8.30;99.90
18658;DHT22;9458;50.942;5.074;2024-03-07T19:00:18;8.30;99.90
18658;DHT22;9458;50.942;5.074;2024-03-07T19:03:04;8.50;99.90
18658;DHT22;9458;50.942;5.074;2024-03-07T19:05:33;8.50;99.90
18658;DHT22;9458;50.942;5.074;2024-03-07T19:08:03;8.50;99.90
18658;DHT22;9458;50.942;5.074;2024-03-07T19:10:41;8.60;99.90
18658;DHT22;9458;50.942;5.074;2024-03-07T19:13:09;8.50;99.90
18658;DHT22;9458;50.942;5.074;2024-03-07T19:15:44;8.50;99.90
18658;DHT22;9458;50.942;5.074;2024-03-07T19:18:11;8.30;99.90
18658;DHT22;9458;50.942;5.074;2024-03-07T19:20:43;8.10;99.90
18658;DHT22;9458;50.942;5.074;2024-03-07T19:23:10;8.20;99.90
18658;DHT22;9458;50.942;5.074;2024-03-07T19:25:38;8.20;99.90
18658;DHT22;9458;50.942;5.074;2024-03-07T19:28:06;8.00;99.90
18658;DHT22;9458;50.942;5.074;2024-03-07T19:30:40;8.10;99.90
18658;DHT22;9458;50.942;5.074;2024-03-07T19:33:10;8.10;99.90
18658;DHT22;9458;50.942;5.074;2024-03-07T19:35:42;8.10;99.90
18658;DHT22;9458;50.942;5.074;2024-03-07T19:38:09;8.00;99.90
18658;DHT22;9458;50.942;5.074;2024-03-07T19:40:36;8.00;99.90
18658;DHT22;9458;50.942;5.074;2024-03-07T19:43:04;8.10;99.90
18658;DHT22;9458;50.942;5.074;2024-03-07T19:45:33;8.10;99.90
18658;DHT22;9458;50.942;5.074;2024-03-07T19:48:04;8.10;99.90
18658;DHT22;9458;50.942;5.074;2024-03-07T19:50:31;8.20;99.90
18658;DHT22;9458;50.942;5.074;2024-03-07T19:52:59;8.20;99.90
18658;DHT22;9458;50.942;5.074;2024-03-07T19:55:26;8.20;99.90
18658;DHT22;9458;50.942;5.074;2024-03-07T19:57:58;8.20;99.90
18658;DHT22;9458;50.942;5.074;2024-03-07T20:00:25;8.20;99.90
18658;DHT22;9458;50.942;5.074;2024-03-07T20:02:59;8.20;99.90
18658;DHT22;9458;50.942;5.074;2024-03-07T20:05:27;8.30;99.90
18658;DHT22;9458;50.942;5.074;2024-03-07T20:07:58;8.20;99.90
18658;DHT22;9458;50.942;5.074;2024-03-07T20:10:25;8.30;99.90
18658;DHT22;9458;50.942;5.074;2024-03-07T20:12:56;8.30;99.90
18658;DHT22;9458;50.942;5.074;2024-03-07T20:15:23;8.40;99.90
18658;DHT22;9458;50.942;5.074;2024-03-07T20:17:51;8.40;99.90
18658;DHT22;9458;50.942;5.074;2024-03-07T20:20:19;8.50;99.90
18658;DHT22;9458;50.942;5.074;2024-03-07T20:22:51;8.60;99.90
18658;DHT22;9458;50.942;5.074;2024-03-07T20:25:19;8.50;99.90
18658;DHT22;9458;50.942;5.074;2024-03-07T20:27:47;8.40;99.90
18658;DHT22;9458;50.942;5.074;2024-03-07T20:30:17;8.30;99.90
18658;DHT22;9458;50.942;5.074;2024-03-07T20:32:45;8.20;99.90
18658;DHT22;9458;50.942;5.074;2024-03-07T20:35:15;8.10;99.90
18658;DHT22;9458;50.942;5.074;2024-03-07T20:37:44;8.00;99.90
18658;DHT22;9458;50.942;5.074;2024-03-07T20:40:16;7.80;99.90
18658;DHT22;9458;50.942;5.074;2024-03-07T20:42:46;7.80;99.90
18658;DHT22;9458;50.942;5.074;2024-03-07T20:45:13;7.70;99.90
18658;DHT22;9458;50.942;5.074;2024-03-07T20:47:42;7.60;99.90
18658;DHT22;9458;50.942;5.074;2024-03-07T20:50:10;7.60;99.90
18658;DHT22;9458;50.942;5.074;2024-03-07T20:52:38;7.50;99.90
18658;DHT22;9458;50.942;5.074;2024-03-07T20:55:07;7.40;99.90
18658;DHT22;9458;50.942;5.074;2024-03-07T20:57:42;7.40;99.90
18658;DHT22;9458;50.942;5.074;2024-03-07T21:00:13;7.30;99.90
18658;DHT22;9458;50.942;5.074;2024-03-07T21:02:41;7.40;99.90
18658;DHT22;9458;50.942;5.074;2024-03-07T21:05:09;7.30;99.90
18658;DHT22;9458;50.942;5.074;2024-03-07T21:07:39;7.20;99.90
18658;DHT22;9458;50.942;5.074;2024-03-07T21:10:08;7.30;99.90
18658;DHT22;9458;50.942;5.074;2024-03-07T21:12:38;7.30;99.90
18658;DHT22;9458;50.942;5.074;2024-03-07T21:15:09;7.20;99.90
18658;DHT22;9458;50.942;5.074;2024-03-07T21:17:37;7.20;99.90
18658;DHT22;9458;50.942;5.074;2024-03-07T21:20:11;7.20;99.90
18658;DHT22;9458;50.942;5.074;2024-03-07T21:22:39;7.20;99.90
18658;DHT22;9458;50.942;5.074;2024-03-07T21:25:07;7.10;99.90
18658;DHT22;9458;50.942;5.074;2024-03-07T21:27:38;7.20;99.90
18658;DHT22;9458;50.942;5.074;2024-03-07T21:30:08;7.20;99.90
18658;DHT22;9458;50.942;5.074;2024-03-07T21:32:37;7.10;99.90
18658;DHT22;9458;50.942;5.074;2024-03-07T21:35:05;7.10;99.90
18658;DHT22;9458;50.942;5.074;2024-03-07T21:37:33;7.10;99.90
18658;DHT22;9458;50.942;5.074;2024-03-07T21:40:01;7.10;99.90
18658;DHT22;9458;50.942;5.074;2024-03-07T21:42:28;7.00;99.90
18658;DHT22;9458;50.942;5.074;2024-03-07T21:44:55;7.00;99.90
18658;DHT22;9458;50.942;5.074;2024-03-07T21:47:26;7.00;99.90
18658;DHT22;9458;50.942;5.074;2024-03-07T21:49:54;7.00;99.90
18658;DHT22;9458;50.942;5.074;2024-03-07T21:52:26;7.00;99.90
18658;DHT22;9458;50.942;5.074;2024-03-07T21:54:55;7.00;99.90
18658;DHT22;9458;50.942;5.074;2024-03-07T21:57:24;6.90;99.90
18658;DHT22;9458;50.942;5.074;2024-03-07T21:59:52;6.90;99.90
18658;DHT22;9458;50.942;5.074;2024-03-07T22:02:24;6.80;99.90
18658;DHT22;9458;50.942;5.074;2024-03-07T22:04:53;6.90;99.90
18658;DHT22;9458;50.942;5.074;2024-03-07T22:07:22;6.80;99.90
18658;DHT22;9458;50.942;5.074;2024-03-07T22:09:50;6.70;99.90
18658;DHT22;9458;50.942;5.074;2024-03-07T22:12:18;6.70;99.90
18658;DHT22;9458;50.942;5.074;2024-03-07T22:14:47;6.70;99.90
18658;DHT22;9458;50.942;5.074;2024-03-07T22:17:14;6.70;99.90
18658;DHT22;9458;50.942;5.074;2024-03-07T22:19:44;6.70;99.90
18658;DHT22;9458;50.942;5.074;2024-03-07T22:22:12;6.50;99.90
18658;DHT22;9458;50.942;5.074;2024-03-07T22:24:39;6.50;99.90
18658;DHT22;9458;50.942;5.074;2024-03-07T22:27:07;6.60;99.90
18658;DHT22;9458;50.942;5.074;2024-03-07T22:29:36;6.50;99.90
18658;DHT22;9458;50.942;5.074;2024-03-07T22:32:04;6.70;99.90
18658;DHT22;9458;50.942;5.074;2024-03-07T22:34:32;6.70;99.90
18658;DHT22;9458;50.942;5.074;2024-03-07T22:37:01;6.50;99.90
18658;DHT22;9458;50.942;5.074;2024-03-07T22:39:32;6.40;99.90
18658;DHT22;9458;50.942;5.074;2024-03-07T22:42:00;6.50;99.90
18658;DHT22;9458;50.942;5.074;2024-03-07T22:44:29;6.40;99.90
18658;DHT22;9458;50.942;5.074;2024-03-07T22:46:56;6.50;99.90
18658;DHT22;9458;50.942;5.074;2024-03-07T22:49:24;6.50;99.90
18658;DHT22;9458;50.942;5.074;2024-03-07T22:51:51;6.20;99.90
18658;DHT22;9458;50.942;5.074;2024-03-07T22:54:27;6.30;99.90
18658;DHT22;9458;50.942;5.074;2024-03-07T22:56:56;6.30;99.90
18658;DHT22;9458;50.942;5.074;2024-03-07T22:59:25;6.40;99.90
18658;DHT22;9458;50.942;5.074;2024-03-07T23:01:53;6.30;99.90
18658;DHT22;9458;50.942;5.074;2024-03-07T23:04:21;6.30;99.90
18658;DHT22;9458;50.942;5.074;2024-03-07T23:06:51;6.20;99.90
18658;DHT22;9458;50.942;5.074;2024-03-07T23:09:19;6.10;99.90
18658;DHT22;9458;50.942;5.074;2024-03-07T23:11:49;6.20;99.90
18658;DHT22;9458;50.942;5.074;2024-03-07T23:14:18;6.10;99.90
18658;DHT22;9458;50.942;5.074;2024-03-07T23:16:45;6.10;99.90
18658;DHT22;9458;50.942;5.074;2024-03-07T23:19:14;6.10;99.90
18658;DHT22;9458;50.942;5.074;2024-03-07T23:21:42;6.00;99.90
18658;DHT22;9458;50.942;5.074;2024-03-07T23:24:09;5.90;99.90
18658;DHT22;9458;50.942;5.074;2024-03-07T23:26:39;5.90;99.90
18658;DHT22;9458;50.942;5.074;2024-03-07T23:29:15;6.00;99.90
18658;DHT22;9458;50.942;5.074;2024-03-07T23:31:42;6.10;99.90
18658;DHT22;9458;50.942;5.074;2024-03-07T23:34:09;6.10;99.90
18658;DHT22;9458;50.942;5.074;2024-03-07T23:36:40;5.90;99.90
18658;DHT22;9458;50.942;5.074;2024-03-07T23:39:09;5.90;99.90
18658;DHT22;9458;50.942;5.074;2024-03-07T23:41:38;5.80;99.90
18658;DHT22;9458;50.942;5.074;2024-03-07T23:44:06;5.80;99.90
18658;DHT22;9458;50.942;5.074;2024-03-07T23:46:35;5.90;99.90
18658;DHT22;9458;50.942;5.074;2024-03-07T23:49:02;5.90;99.90
18658;DHT22;9458;50.942;5.074;2024-03-07T23:51:30;5.70;99.90
18658;DHT22;9458;50.942;5.074;2024-03-07T23:53:57;5.60;99.90
18658;DHT22;9458;50.942;5.074;2024-03-07T23:56:24;5.60;99.90
18658;DHT22;9458;50.942;5.074;2024-03-07T23:58:52;5.70;99.90
